Alex Bay, NY

1:41 AM EDT on September 01, 2016 (GMT -0400)
American Narrows Entrance | | Change Station

Elev 240 ft 44.27 °N, 76.03 °W | Updated 5 seconds ago

Scattered Clouds
Scattered Clouds
67.3 °F
Feels Like 67.3 °F
N
3.6
Wind Variable Wind from NNE
Gusts 4.9 mph

Today
High -- | Low -- °F
--% Chance of Precip.
Yesterday
High -- | Low -- °F
Precip. -- in
Pressure 29.91 in
Visibility 10.0 miles
Clouds Scattered Clouds 6000 ft
Scattered Clouds 8000 ft
Dew Point 58 °F
Humidity 71%
Rainfall 0.00 in
Snow Depth Not available.
6:27 AM 7:39 PM
Waning Crescent, 0% visible
METAR KGTB 010458Z AUTO 35005KT 10SM SCT060 SCT080 16/15 A2991 RMK AO2 SLP127 T01640149 402310163
Pressure 29.91 in
Visibility 10.0 miles
Clouds Scattered Clouds 6000 ft
Scattered Clouds 8000 ft
Dew Point 58 °F
Humidity 71%
Rainfall 0.00 in
Snow Depth Not available.
6:27 AM 7:39 PM
Waning Crescent, 0% visible
METAR KGTB 010458Z AUTO 35005KT 10SM SCT060 SCT080 16/15 A2991 RMK AO2 SLP127 T01640149 402310163

10-Day Weather Forecast

Almanac

Astronomy

Sep. 01, 2016 Rise Set
Actual Time
Civil Twilight
Nautical Twilight
Astronomical Twilight
Moon
Length of Visible Light
Length of Day
Tomorrow will be .
, % of the Moon is Illuminated

Today's Extremes

State Highs State Lows

Community

WunderPhotos

Upload Photos

1,936,313 photos uploaded!

WunderBlog® & News

Nearby

Air Quality

  Air Quality AQ Index Pollutant
Not available.

Snow Depth

Station Depth Elevation

Earthquake Activity

City Distance Mag. Time & Date
Minimum magnitude displayed is 2.5.

Coastal Water Temperatures

Place Temperature

Stations

Nearby Weather Stations

Station Location Temp. Windchill Dew Point Humidity Wind Precip. Elev Updated Type
                   

Watches & Warnings

There are currently no watches in effect.